sensor_id;sensor_type;location;lat;lon;timestamp;pressure;altitude;pressure_sealevel;temperature;humidity
50040;BME280;44598;51.606;5.912;2023-02-04T00:10:04;102900;;;9.0;89.5
50040;BME280;44598;51.606;5.912;2023-02-04T00:23:23;102900;;;8.9;90.3
50040;BME280;44598;51.606;5.912;2023-02-04T00:36:43;102900;;;8.9;90.5
50040;BME280;44598;51.606;5.912;2023-02-04T00:50:03;102900;;;8.8;90.9
50040;BME280;44598;51.606;5.912;2023-02-04T01:03:23;102900;;;8.8;91.2
50040;BME280;44598;51.606;5.912;2023-02-04T01:16:43;102900;;;8.7;90.9
50040;BME280;44598;51.606;5.912;2023-02-04T01:30:03;102900;;;8.7;91.1
50040;BME280;44598;51.606;5.912;2023-02-04T01:56:42;103000;;;8.2;93.0
50040;BME280;44598;51.606;5.912;2023-02-04T02:23:22;103000;;;7.8;92.9
50040;BME280;44598;51.606;5.912;2023-02-04T02:36:42;103000;;;7.7;93.5
50040;BME280;44598;51.606;5.912;2023-02-04T02:50:02;103000;;;7.6;93.7
50040;BME280;44598;51.606;5.912;2023-02-04T03:03:21;103000;;;7.7;93.9
50040;BME280;44598;51.606;5.912;2023-02-04T03:16:41;103000;;;7.7;94.1
50040;BME280;44598;51.606;5.912;2023-02-04T03:43:21;103000;;;7.8;94.0
50040;BME280;44598;51.606;5.912;2023-02-04T03:56:41;103000;;;7.7;94.1
50040;BME280;44598;51.606;5.912;2023-02-04T04:10:00;103100;;;7.7;93.8
50040;BME280;44598;51.606;5.912;2023-02-04T04:23:20;103100;;;7.6;93.0
50040;BME280;44598;51.606;5.912;2023-02-04T04:50:00;103100;;;7.2;93.4
50040;BME280;44598;51.606;5.912;2023-02-04T05:29:59;103100;;;6.8;94.0
50040;BME280;44598;51.606;5.912;2023-02-04T05:43:19;103100;;;6.6;94.8
50040;BME280;44598;51.606;5.912;2023-02-04T05:56:39;103100;;;6.6;94.7
50040;BME280;44598;51.606;5.912;2023-02-04T06:09:59;103100;;;6.6;95.0
50040;BME280;44598;51.606;5.912;2023-02-04T06:23:18;103100;;;6.7;95.1
50040;BME280;44598;51.606;5.912;2023-02-04T06:36:38;103100;;;6.9;94.5
50040;BME280;44598;51.606;5.912;2023-02-04T06:49:58;103200;;;7.0;94.2
50040;BME280;44598;51.606;5.912;2023-02-04T07:03:18;103200;;;7.1;94.7
50040;BME280;44598;51.606;5.912;2023-02-04T07:16:38;103200;;;7.1;94.8
50040;BME280;44598;51.606;5.912;2023-02-04T07:29:58;103200;;;7.2;94.9
50040;BME280;44598;51.606;5.912;2023-02-04T07:43:17;103200;;;7.3;95.1
50040;BME280;44598;51.606;5.912;2023-02-04T07:56:37;103200;;;7.4;95.2
50040;BME280;44598;51.606;5.912;2023-02-04T08:09:57;103300;;;7.6;95.2
50040;BME280;44598;51.606;5.912;2023-02-04T08:23:17;103300;;;7.7;95.2
50040;BME280;44598;51.606;5.912;2023-02-04T09:03:16;103300;;;8.3;93.7
50040;BME280;44598;51.606;5.912;2023-02-04T09:16:36;103300;;;8.5;93.3
50040;BME280;44598;51.606;5.912;2023-02-04T09:29:56;103300;;;8.7;92.9
50040;BME280;44598;51.606;5.912;2023-02-04T09:43:16;103300;;;8.9;92.1
50040;BME280;44598;51.606;5.912;2023-02-04T09:56:36;103300;;;9.2;90.8
50040;BME280;44598;51.606;5.912;2023-02-04T10:09:55;103300;;;9.4;90.4
50040;BME280;44598;51.606;5.912;2023-02-04T10:36:35;103300;;;9.8;87.5
50040;BME280;44598;51.606;5.912;2023-02-04T10:49:55;103300;;;10.0;87.3
50040;BME280;44598;51.606;5.912;2023-02-04T11:03:15;103300;;;10.3;84.4
50040;BME280;44598;51.606;5.912;2023-02-04T11:16:34;103300;;;10.5;83.7
50040;BME280;44598;51.606;5.912;2023-02-04T11:29:54;103300;;;10.7;83.6
50040;BME280;44598;51.606;5.912;2023-02-04T11:43:14;103300;;;11.0;80.4
50040;BME280;44598;51.606;5.912;2023-02-04T11:56:34;103300;;;11.3;79.6
50040;BME280;44598;51.606;5.912;2023-02-04T12:09:54;103300;;;11.6;78.6
50040;BME280;44598;51.606;5.912;2023-02-04T12:23:14;103300;;;11.6;77.9
50040;BME280;44598;51.606;5.912;2023-02-04T12:36:33;103300;;;11.7;77.4
50040;BME280;44598;51.606;5.912;2023-02-04T13:03:13;103300;;;11.8;75.1
50040;BME280;44598;51.606;5.912;2023-02-04T13:16:33;103300;;;11.9;77.2
50040;BME280;44598;51.606;5.912;2023-02-04T13:29:53;103300;;;12.0;75.4
50040;BME280;44598;51.606;5.912;2023-02-04T13:43:12;103300;;;12.1;73.8
50040;BME280;44598;51.606;5.912;2023-02-04T14:09:52;103300;;;12.2;72.9
50040;BME280;44598;51.606;5.912;2023-02-04T14:23:12;103300;;;12.2;73.9
50040;BME280;44598;51.606;5.912;2023-02-04T14:36:32;103300;;;12.2;75.6
50040;BME280;44598;51.606;5.912;2023-02-04T14:49:52;103300;;;12.3;74.9
50040;BME280;44598;51.606;5.912;2023-02-04T15:03:12;103300;;;12.5;73.5
50040;BME280;44598;51.606;5.912;2023-02-04T15:16:31;103300;;;12.7;72.7
50040;BME280;44598;51.606;5.912;2023-02-04T15:29:51;103300;;;12.7;71.7
50040;BME280;44598;51.606;5.912;2023-02-04T15:56:31;103300;;;12.3;75.2
50040;BME280;44598;51.606;5.912;2023-02-04T16:09:51;103300;;;12.0;75.9
50040;BME280;44598;51.606;5.912;2023-02-04T16:23:10;103400;;;11.8;76.7
50040;BME280;44598;51.606;5.912;2023-02-04T16:36:30;103400;;;11.6;77.6
50040;BME280;44598;51.606;5.912;2023-02-04T16:49:50;103400;;;11.4;79.5
50040;BME280;44598;51.606;5.912;2023-02-04T17:03:10;103400;;;11.2;81.4
50040;BME280;44598;51.606;5.912;2023-02-04T17:16:30;103400;;;10.9;82.3
50040;BME280;44598;51.606;5.912;2023-02-04T17:29:49;103400;;;10.6;83.0
50040;BME280;44598;51.606;5.912;2023-02-04T17:43:09;103400;;;10.4;83.6
50040;BME280;44598;51.606;5.912;2023-02-04T18:23:09;103400;;;10.0;85.6
50040;BME280;44598;51.606;5.912;2023-02-04T18:36:28;103400;;;9.9;86.0
50040;BME280;44598;51.606;5.912;2023-02-04T18:49:48;103400;;;9.9;85.7
50040;BME280;44598;51.606;5.912;2023-02-04T19:03:08;103400;;;9.8;86.3
50040;BME280;44598;51.606;5.912;2023-02-04T19:16:28;103400;;;9.8;85.9
50040;BME280;44598;51.606;5.912;2023-02-04T19:43:07;103400;;;9.7;88.4
50040;BME280;44598;51.606;5.912;2023-02-04T19:56:27;103400;;;9.6;89.4
50040;BME280;44598;51.606;5.912;2023-02-04T20:09:47;103400;;;9.4;90.6
50040;BME280;44598;51.606;5.912;2023-02-04T20:23:07;103400;;;9.3;91.3
50040;BME280;44598;51.606;5.912;2023-02-04T20:36:27;103400;;;9.2;91.6
50040;BME280;44598;51.606;5.912;2023-02-04T20:49:47;103400;;;9.0;92.2
50040;BME280;44598;51.606;5.912;2023-02-04T21:16:26;103400;;;8.8;92.4
50040;BME280;44598;51.606;5.912;2023-02-04T21:29:46;103400;;;8.8;92.7
50040;BME280;44598;51.606;5.912;2023-02-04T21:43:06;103400;;;8.8;92.7
50040;BME280;44598;51.606;5.912;2023-02-04T21:56:26;103400;;;8.8;93.1
50040;BME280;44598;51.606;5.912;2023-02-04T22:09:45;103400;;;8.7;93.3
50040;BME280;44598;51.606;5.912;2023-02-04T22:23:05;103400;;;8.7;93.5
50040;BME280;44598;51.606;5.912;2023-02-04T22:49:45;103400;;;8.6;93.3
50040;BME280;44598;51.606;5.912;2023-02-04T23:03:05;103400;;;8.5;93.7
50040;BME280;44598;51.606;5.912;2023-02-04T23:29:44;103400;;;8.3;93.9
50040;BME280;44598;51.606;5.912;2023-02-04T23:43:04;103400;;;8.3;93.9
50040;BME280;44598;51.606;5.912;2023-02-04T23:56:24;103400;;;8.2;94.0
